createdAt,value
2018-07-05T00:00:09.992Z,21.38
2018-07-05T00:01:10.027Z,21.40
2018-07-05T00:02:10.038Z,21.34
2018-07-05T00:03:10.062Z,21.34
2018-07-05T00:04:10.088Z,21.36
2018-07-05T00:05:10.113Z,21.33
2018-07-05T00:06:10.134Z,21.23
2018-07-05T00:07:13.190Z,21.25
2018-07-05T00:08:10.183Z,21.12
2018-07-05T00:09:10.208Z,21.19
2018-07-05T00:10:10.231Z,21.16
2018-07-05T00:11:10.257Z,21.18
2018-07-05T00:12:10.289Z,21.16
2018-07-05T00:13:10.305Z,21.15
2018-07-05T00:14:10.331Z,21.18
2018-07-05T00:15:10.354Z,21.19
2018-07-05T00:16:10.378Z,21.08
2018-07-05T00:17:10.444Z,21.09
2018-07-05T00:18:10.424Z,21.08
2018-07-05T00:19:10.448Z,21.08
2018-07-05T00:20:10.476Z,21.08
2018-07-05T00:21:10.500Z,21.04
2018-07-05T00:22:10.521Z,21.03
2018-07-05T00:23:10.545Z,21.09
2018-07-05T00:24:10.570Z,21.09
2018-07-05T00:25:10.594Z,21.06
2018-07-05T00:26:10.617Z,21.01
2018-07-05T00:27:10.644Z,21.11
2018-07-05T00:28:10.666Z,21.06
2018-07-05T00:29:10.692Z,21.09
2018-07-05T00:30:10.713Z,21.09
2018-07-05T00:31:10.740Z,21.01
2018-07-05T00:32:10.765Z,21.01
2018-07-05T00:33:10.786Z,20.97
2018-07-05T00:34:10.810Z,21.00
2018-07-05T00:35:10.835Z,20.96
2018-07-05T00:36:10.860Z,21.01
2018-07-05T00:37:10.880Z,20.93
2018-07-05T00:38:10.906Z,20.93
2018-07-05T00:39:10.932Z,20.98
2018-07-05T00:40:10.954Z,20.83
2018-07-05T00:41:10.983Z,20.78
2018-07-05T00:42:11.001Z,20.78
2018-07-05T00:43:11.025Z,20.86
2018-07-05T00:44:11.049Z,20.81
2018-07-05T00:45:11.074Z,20.83
2018-07-05T00:46:11.097Z,20.81
2018-07-05T00:47:11.122Z,20.83
2018-07-05T00:48:11.145Z,20.74
2018-07-05T00:49:11.246Z,20.67
2018-07-05T00:50:11.195Z,20.72
2018-07-05T00:51:11.219Z,20.63
2018-07-05T00:52:11.245Z,20.66
2018-07-05T00:53:11.266Z,20.58
2018-07-05T00:54:11.290Z,20.66
2018-07-05T00:55:11.314Z,20.64
2018-07-05T00:56:11.341Z,20.66
2018-07-05T00:57:11.358Z,20.58
2018-07-05T00:58:11.383Z,20.64
2018-07-05T00:59:11.408Z,20.56
2018-07-05T01:00:11.430Z,20.46
2018-07-05T01:01:11.453Z,20.48
2018-07-05T01:02:11.479Z,20.37
2018-07-05T01:03:11.505Z,20.35
2018-07-05T01:04:11.528Z,20.34
2018-07-05T01:05:11.552Z,20.27
2018-07-05T01:06:11.574Z,20.19
2018-07-05T01:07:11.600Z,20.25
2018-07-05T01:08:11.620Z,20.25
2018-07-05T01:09:11.643Z,20.26
2018-07-05T01:10:11.670Z,20.25
2018-07-05T01:11:11.695Z,20.25
2018-07-05T01:12:11.719Z,20.16
2018-07-05T01:13:11.741Z,20.18
2018-07-05T01:14:11.769Z,20.22
2018-07-05T01:15:11.816Z,20.10
2018-07-05T01:16:11.813Z,20.07
2018-07-05T01:17:11.839Z,20.07
2018-07-05T01:18:11.857Z,20.07
2018-07-05T01:19:11.884Z,20.02
2018-07-05T01:20:11.905Z,20.01
2018-07-05T01:21:11.931Z,20.04
2018-07-05T01:22:11.952Z,20.02
2018-07-05T01:23:11.975Z,20.01
2018-07-05T01:24:11.999Z,19.90
2018-07-05T01:25:12.023Z,20.02
2018-07-05T01:26:12.050Z,20.02
2018-07-05T01:27:12.073Z,19.92
2018-07-05T01:28:12.097Z,19.89
2018-07-05T01:29:12.118Z,19.90
2018-07-05T01:30:12.144Z,19.86
2018-07-05T01:31:12.164Z,19.86
2018-07-05T01:32:12.188Z,19.83
2018-07-05T01:33:12.214Z,19.80
2018-07-05T01:34:12.235Z,19.71
2018-07-05T01:35:12.258Z,19.70
2018-07-05T01:36:12.284Z,19.67
2018-07-05T01:37:12.307Z,19.68
2018-07-05T01:38:12.332Z,19.60
2018-07-05T01:39:12.354Z,19.64
2018-07-05T01:40:12.376Z,19.61
2018-07-05T01:41:12.402Z,19.61
2018-07-05T01:42:12.425Z,19.53
2018-07-05T01:43:12.450Z,19.60
2018-07-05T01:44:12.473Z,19.63
2018-07-05T01:45:12.496Z,19.56
2018-07-05T01:46:12.519Z,19.60
2018-07-05T01:47:12.544Z,19.56
2018-07-05T01:48:12.567Z,19.63
2018-07-05T01:49:12.590Z,19.57
2018-07-05T01:50:12.614Z,19.61
2018-07-05T01:51:12.634Z,19.55
2018-07-05T01:52:12.659Z,19.55
2018-07-05T01:53:12.684Z,19.60
2018-07-05T01:54:12.704Z,19.57
2018-07-05T01:55:12.735Z,19.57
2018-07-05T01:56:12.753Z,19.55
2018-07-05T01:57:12.775Z,19.57
2018-07-05T01:58:12.798Z,19.53
2018-07-05T01:59:12.824Z,19.49
2018-07-05T02:00:12.846Z,19.50
2018-07-05T02:01:12.867Z,19.43
2018-07-05T02:02:12.893Z,19.43
2018-07-05T02:03:12.918Z,19.43
2018-07-05T02:04:12.942Z,19.52
2018-07-05T02:05:12.964Z,19.46
2018-07-05T02:06:12.986Z,19.47
2018-07-05T02:07:13.009Z,19.50
2018-07-05T02:08:13.032Z,19.43
2018-07-05T02:09:13.054Z,19.35
2018-07-05T02:10:13.081Z,19.37
2018-07-05T02:11:13.103Z,19.34
2018-07-05T02:12:13.125Z,19.28
2018-07-05T02:13:13.150Z,19.27
2018-07-05T02:14:13.172Z,19.30
2018-07-05T02:15:13.195Z,19.15
2018-07-05T02:16:13.222Z,19.17
2018-07-05T02:17:13.244Z,19.12
2018-07-05T02:18:13.266Z,19.19
2018-07-05T02:19:13.289Z,19.23
2018-07-05T02:20:13.315Z,19.15
2018-07-05T02:21:13.338Z,19.17
2018-07-05T02:22:13.358Z,19.17
2018-07-05T02:23:13.385Z,19.17
2018-07-05T02:24:13.407Z,19.20
2018-07-05T02:25:13.430Z,19.19
2018-07-05T02:26:13.452Z,19.17
2018-07-05T02:27:13.475Z,19.19
2018-07-05T02:28:13.501Z,19.19
2018-07-05T02:29:13.522Z,19.10
2018-07-05T02:30:13.549Z,19.20
2018-07-05T02:31:13.574Z,19.17
2018-07-05T02:32:13.594Z,19.17
2018-07-05T02:33:13.616Z,19.17
2018-07-05T02:34:13.640Z,19.20
2018-07-05T02:35:13.664Z,19.13
2018-07-05T02:36:13.687Z,19.13
2018-07-05T02:37:13.707Z,19.12
2018-07-05T02:38:13.729Z,19.17
2018-07-05T02:39:13.753Z,18.99
2018-07-05T02:40:13.780Z,19.02
2018-07-05T02:41:13.802Z,18.96
2018-07-05T02:42:13.823Z,18.94
2018-07-05T02:43:13.845Z,18.97
2018-07-05T02:44:13.870Z,19.00
2018-07-05T02:45:13.895Z,19.02
2018-07-05T02:46:13.915Z,18.91
2018-07-05T02:47:13.939Z,18.99
2018-07-05T02:48:13.975Z,19.05
2018-07-05T02:49:13.987Z,18.93
2018-07-05T02:50:14.011Z,18.89
2018-07-05T02:51:14.031Z,18.93
2018-07-05T02:52:14.059Z,18.87
2018-07-05T02:53:14.078Z,18.93
2018-07-05T02:54:14.102Z,18.86
2018-07-05T02:55:14.124Z,18.93
2018-07-05T02:56:14.148Z,19.00
2018-07-05T02:57:14.172Z,19.00
2018-07-05T02:58:14.194Z,19.07
2018-07-05T02:59:14.216Z,19.00
2018-07-05T03:00:14.241Z,18.93
2018-07-05T03:01:14.262Z,19.05
2018-07-05T03:02:14.286Z,18.93
2018-07-05T03:03:14.308Z,19.02
2018-07-05T03:04:14.335Z,18.96
2018-07-05T03:05:14.354Z,18.96
2018-07-05T03:06:14.381Z,19.05
2018-07-05T03:07:14.401Z,18.89
2018-07-05T03:08:14.427Z,18.96
2018-07-05T03:09:14.448Z,18.96
2018-07-05T03:10:14.473Z,18.94
2018-07-05T03:11:14.494Z,18.94
2018-07-05T03:12:14.518Z,18.96
2018-07-05T03:13:14.540Z,18.87
2018-07-05T03:14:14.565Z,18.89
2018-07-05T03:15:14.585Z,18.87
2018-07-05T03:16:14.682Z,19.00
2018-07-05T03:17:14.635Z,18.86
2018-07-05T03:18:14.655Z,18.89
2018-07-05T03:19:14.681Z,18.75
2018-07-05T03:20:14.705Z,18.82
2018-07-05T03:21:14.727Z,18.81
2018-07-05T03:22:14.747Z,18.86
2018-07-05T03:23:14.773Z,18.81
2018-07-05T03:24:14.797Z,18.72
2018-07-05T03:25:14.819Z,18.82
2018-07-05T03:26:14.839Z,18.76
2018-07-05T03:27:14.863Z,18.82
2018-07-05T03:28:14.886Z,18.86
2018-07-05T03:29:14.908Z,18.75
2018-07-05T03:30:14.931Z,18.84
2018-07-05T03:31:14.955Z,18.75
2018-07-05T03:32:14.977Z,18.82
2018-07-05T03:33:14.999Z,18.76
2018-07-05T03:34:15.024Z,18.76
2018-07-05T03:35:15.047Z,18.79
2018-07-05T03:36:15.075Z,18.79
2018-07-05T03:37:15.092Z,18.81
2018-07-05T03:38:15.118Z,18.78
2018-07-05T03:39:15.139Z,18.87
2018-07-05T03:40:15.170Z,18.90
2018-07-05T03:41:15.185Z,18.84
2018-07-05T03:42:15.211Z,18.78
2018-07-05T03:43:15.233Z,18.81
2018-07-05T03:44:15.256Z,18.69
2018-07-05T03:45:15.281Z,18.78
2018-07-05T03:46:15.302Z,18.66
2018-07-05T03:47:15.326Z,18.69
2018-07-05T03:48:15.347Z,18.65
2018-07-05T03:49:15.370Z,18.74
2018-07-05T03:50:15.395Z,18.74
2018-07-05T03:51:15.415Z,18.74
2018-07-05T03:52:15.441Z,18.65
2018-07-05T03:53:15.497Z,18.76
2018-07-05T03:54:15.488Z,18.79
2018-07-05T03:55:15.508Z,18.71
2018-07-05T03:56:15.535Z,18.76
2018-07-05T03:57:15.556Z,18.78
2018-07-05T03:58:15.579Z,18.81
2018-07-05T03:59:15.601Z,18.84
2018-07-05T04:00:15.624Z,18.86
2018-07-05T04:01:15.650Z,18.86
2018-07-05T04:02:15.670Z,18.87
2018-07-05T04:03:15.695Z,18.82
2018-07-05T04:04:15.716Z,18.82
2018-07-05T04:05:15.745Z,18.79
2018-07-05T04:06:15.762Z,18.82
2018-07-05T04:07:15.788Z,18.84
2018-07-05T04:08:15.859Z,18.89
2018-07-05T04:09:15.831Z,18.94
2018-07-05T04:10:15.855Z,18.93
2018-07-05T04:11:15.881Z,18.93
2018-07-05T04:12:15.908Z,18.93
2018-07-05T04:13:15.927Z,18.94
2018-07-05T04:14:15.946Z,19.05
2018-07-05T04:15:15.972Z,19.02
2018-07-05T04:16:15.994Z,18.99
2018-07-05T04:17:16.018Z,19.06
2018-07-05T04:18:16.043Z,19.07
2018-07-05T04:19:16.067Z,18.99
2018-07-05T04:20:16.090Z,19.09
2018-07-05T04:21:16.108Z,19.12
2018-07-05T04:22:16.133Z,18.99
2018-07-05T04:23:16.159Z,19.15
2018-07-05T04:24:16.182Z,19.13
2018-07-05T04:25:16.206Z,19.15
2018-07-05T04:26:16.226Z,19.20
2018-07-05T04:27:16.248Z,19.24
2018-07-05T04:28:16.272Z,19.27
2018-07-05T04:29:16.297Z,19.24
2018-07-05T04:30:16.324Z,19.27
2018-07-05T04:31:16.342Z,19.27
2018-07-05T04:32:16.365Z,19.31
2018-07-05T04:33:16.387Z,19.27
2018-07-05T04:34:16.483Z,19.31
2018-07-05T04:35:16.437Z,19.27
2018-07-05T04:36:16.461Z,19.31
2018-07-05T04:37:16.483Z,19.27
2018-07-05T04:38:16.504Z,19.25
2018-07-05T04:39:16.527Z,19.37
2018-07-05T04:40:16.554Z,19.32
2018-07-05T04:41:16.573Z,19.38
2018-07-05T04:42:16.600Z,19.47
2018-07-05T04:43:16.623Z,19.49
2018-07-05T04:44:16.649Z,19.55
2018-07-05T04:45:16.672Z,19.52
2018-07-05T04:46:16.692Z,19.50
2018-07-05T04:47:16.716Z,19.63
2018-07-05T04:48:16.739Z,19.65
2018-07-05T04:49:16.761Z,19.63
2018-07-05T04:50:16.783Z,19.60
2018-07-05T04:51:16.806Z,19.56
2018-07-05T04:52:16.830Z,19.50
2018-07-05T04:53:16.855Z,19.57
2018-07-05T04:54:16.902Z,19.57
2018-07-05T04:55:16.900Z,19.55
2018-07-05T04:56:16.926Z,19.61
2018-07-05T04:57:16.947Z,19.57
2018-07-05T04:58:16.969Z,19.56
2018-07-05T04:59:16.995Z,19.60
2018-07-05T05:00:17.019Z,19.72
2018-07-05T05:01:17.040Z,19.71
2018-07-05T05:02:17.120Z,19.89
2018-07-05T05:03:17.089Z,19.98
2018-07-05T05:04:17.114Z,20.07
2018-07-05T05:05:17.139Z,20.04
2018-07-05T05:06:17.159Z,20.08
2018-07-05T05:07:17.182Z,20.15
2018-07-05T05:08:17.208Z,20.16
2018-07-05T05:09:17.228Z,20.30
2018-07-05T05:10:17.258Z,20.25
2018-07-05T05:11:17.276Z,20.34
2018-07-05T05:12:17.300Z,20.38
2018-07-05T05:13:17.322Z,20.38
2018-07-05T05:14:17.350Z,20.40
2018-07-05T05:15:17.371Z,20.37
2018-07-05T05:16:17.396Z,20.41
2018-07-05T05:17:17.420Z,20.25
2018-07-05T05:18:17.444Z,20.26
2018-07-05T05:19:17.466Z,20.37
2018-07-05T05:20:17.494Z,20.38
2018-07-05T05:21:17.516Z,20.58
2018-07-05T05:22:17.539Z,20.66
2018-07-05T05:23:17.565Z,20.64
2018-07-05T05:24:17.606Z,20.83
2018-07-05T05:25:17.609Z,20.78
2018-07-05T05:26:17.637Z,20.90
2018-07-05T05:27:17.658Z,20.76
2018-07-05T05:28:17.684Z,20.64
2018-07-05T05:29:17.714Z,20.66
2018-07-05T05:30:17.733Z,21.70
2018-07-05T05:31:17.756Z,23.01
2018-07-05T05:32:17.779Z,23.60
2018-07-05T05:33:17.803Z,23.66
2018-07-05T05:34:17.828Z,24.12
2018-07-05T05:35:17.855Z,23.66
2018-07-05T05:36:17.877Z,23.59
2018-07-05T05:37:17.900Z,23.97
2018-07-05T05:38:17.930Z,24.32
2018-07-05T05:39:17.949Z,24.63
2018-07-05T05:40:17.976Z,24.58
2018-07-05T05:41:17.998Z,24.37
2018-07-05T05:42:18.025Z,24.48
2018-07-05T05:43:18.050Z,24.61
2018-07-05T05:44:18.074Z,24.40
2018-07-05T05:45:18.098Z,23.72
2018-07-05T05:46:18.122Z,23.97
2018-07-05T05:47:18.147Z,23.90
2018-07-05T05:48:18.172Z,23.55
2018-07-05T05:49:18.195Z,23.44
2018-07-05T05:50:18.220Z,23.29
2018-07-05T05:51:18.246Z,23.00
2018-07-05T05:52:18.271Z,22.76
2018-07-05T05:53:18.294Z,22.39
2018-07-05T05:54:18.319Z,23.15
2018-07-05T05:55:18.347Z,23.85
2018-07-05T05:56:18.372Z,24.07
2018-07-05T05:57:18.397Z,24.37
2018-07-05T05:58:18.423Z,24.77
2018-07-05T05:59:18.446Z,25.05
2018-07-05T06:00:18.473Z,25.24
2018-07-05T06:01:18.497Z,25.56
2018-07-05T06:02:18.523Z,25.51
2018-07-05T06:03:18.549Z,25.70
2018-07-05T06:04:18.570Z,25.74
2018-07-05T06:05:18.594Z,25.86
2018-07-05T06:06:18.622Z,25.94
2018-07-05T06:07:18.647Z,26.06
2018-07-05T06:08:18.674Z,26.00
2018-07-05T06:09:18.697Z,25.93
2018-07-05T06:10:18.722Z,25.96
2018-07-05T06:11:18.751Z,26.11
2018-07-05T06:12:18.776Z,26.17
2018-07-05T06:13:18.803Z,26.34
2018-07-05T06:14:18.829Z,26.20
2018-07-05T06:15:18.887Z,26.32
2018-07-05T06:16:18.879Z,26.38
2018-07-05T06:17:18.906Z,26.34
2018-07-05T06:18:18.931Z,26.17
2018-07-05T06:19:18.961Z,26.23
2018-07-05T06:20:18.986Z,25.97
2018-07-05T06:21:19.015Z,25.84
2018-07-05T06:22:19.037Z,25.82
2018-07-05T06:23:19.064Z,25.71
2018-07-05T06:24:19.092Z,25.66
2018-07-05T06:25:19.120Z,25.42
2018-07-05T06:26:19.145Z,25.52
2018-07-05T06:27:19.176Z,25.29
2018-07-05T06:28:19.201Z,25.12
2018-07-05T06:29:19.225Z,24.92
2018-07-05T06:30:19.256Z,24.49
2018-07-05T06:31:19.281Z,24.51
2018-07-05T06:32:19.310Z,24.63
2018-07-05T06:33:19.337Z,24.75
2018-07-05T06:34:19.363Z,25.01
2018-07-05T06:35:19.392Z,25.15
2018-07-05T06:36:19.418Z,25.26
2018-07-05T06:37:19.446Z,25.27
2018-07-05T06:38:19.472Z,25.33
2018-07-05T06:39:19.500Z,25.42
2018-07-05T06:40:19.527Z,25.39
2018-07-05T06:41:19.556Z,25.39
2018-07-05T06:42:19.581Z,25.34
2018-07-05T06:43:19.613Z,25.42
2018-07-05T06:44:19.640Z,25.66
2018-07-05T06:45:19.669Z,25.75
2018-07-05T06:46:19.697Z,25.51
2018-07-05T06:47:19.739Z,25.67
2018-07-05T06:48:19.750Z,25.75
2018-07-05T06:49:19.830Z,25.70
2018-07-05T06:50:19.807Z,25.97
2018-07-05T06:51:19.834Z,26.06
2018-07-05T06:52:19.864Z,25.97
2018-07-05T06:53:19.890Z,25.67
2018-07-05T06:54:19.918Z,25.84
2018-07-05T06:55:19.946Z,26.01
2018-07-05T06:56:19.973Z,25.91
2018-07-05T06:57:20.005Z,25.67
2018-07-05T06:58:20.032Z,25.74
2018-07-05T06:59:20.059Z,25.96
2018-07-05T07:00:20.088Z,25.56
2018-07-05T07:01:20.116Z,25.38
2018-07-05T07:02:20.143Z,25.54
2018-07-05T07:03:20.174Z,25.42
2018-07-05T07:04:20.199Z,25.64
2018-07-05T07:05:20.227Z,25.39
2018-07-05T07:06:20.260Z,25.30
2018-07-05T07:07:20.287Z,25.56
2018-07-05T07:08:20.314Z,25.52
2018-07-05T07:09:20.341Z,25.74
2018-07-05T07:10:20.371Z,26.00
2018-07-05T07:11:20.402Z,26.04
2018-07-05T07:12:20.428Z,26.04
2018-07-05T07:13:20.459Z,26.32
2018-07-05T07:14:20.486Z,26.54
2018-07-05T07:15:20.519Z,26.50
2018-07-05T07:16:20.548Z,26.75
2018-07-05T07:17:20.574Z,26.89
2018-07-05T07:18:20.603Z,26.90
2018-07-05T07:19:20.632Z,26.91
2018-07-05T07:20:20.665Z,26.87
2018-07-05T07:21:20.693Z,26.71
2018-07-05T07:22:20.723Z,26.60
2018-07-05T07:23:20.752Z,26.22
2018-07-05T07:24:20.782Z,26.20
2018-07-05T07:25:20.811Z,26.47
2018-07-05T07:26:20.839Z,26.17
2018-07-05T07:27:20.870Z,26.19
2018-07-05T07:28:20.897Z,26.56
2018-07-05T07:29:20.926Z,26.82
2018-07-05T07:30:20.956Z,27.06
2018-07-05T07:31:21.003Z,27.08
2018-07-05T07:32:21.016Z,26.90
2018-07-05T07:33:21.047Z,26.64
2018-07-05T07:34:21.078Z,26.79
2018-07-05T07:35:21.109Z,27.15
2018-07-05T07:36:21.136Z,27.08
2018-07-05T07:37:21.194Z,27.11
2018-07-05T07:38:21.196Z,27.08
2018-07-05T07:39:21.227Z,27.15
2018-07-05T07:40:21.255Z,27.28
2018-07-05T07:41:21.285Z,27.28
2018-07-05T07:42:21.316Z,27.45
2018-07-05T07:43:21.347Z,27.37
2018-07-05T07:44:21.383Z,27.26
2018-07-05T07:45:21.413Z,27.15
2018-07-05T07:46:21.435Z,27.04
2018-07-05T07:47:21.468Z,27.43
2018-07-05T07:48:21.500Z,27.27
2018-07-05T07:49:21.526Z,27.38
2018-07-05T07:50:21.562Z,27.27
2018-07-05T07:51:21.689Z,27.37
2018-07-05T07:52:21.621Z,27.31
2018-07-05T07:53:21.649Z,27.48
2018-07-05T07:54:21.679Z,27.23
2018-07-05T07:55:21.710Z,27.15
2018-07-05T07:56:21.745Z,27.41
2018-07-05T07:57:21.773Z,27.51
2018-07-05T07:58:21.801Z,27.23
2018-07-05T07:59:21.832Z,27.06
2018-07-05T08:00:21.863Z,27.06
2018-07-05T08:01:21.894Z,27.13
2018-07-05T08:02:21.927Z,27.18
2018-07-05T08:03:21.958Z,27.04
2018-07-05T08:04:21.987Z,27.21
2018-07-05T08:05:22.017Z,27.16
2018-07-05T08:06:22.046Z,27.37
2018-07-05T08:07:22.077Z,27.76
2018-07-05T08:08:22.108Z,28.06
2018-07-05T08:09:22.143Z,28.02
2018-07-05T08:10:22.169Z,28.09
2018-07-05T08:11:22.202Z,28.11
2018-07-05T08:12:22.230Z,28.16
2018-07-05T08:13:22.264Z,28.28
2018-07-05T08:14:22.296Z,28.33
2018-07-05T08:15:22.327Z,28.51
2018-07-05T08:16:22.358Z,28.48
2018-07-05T08:17:22.387Z,28.30
2018-07-05T08:18:22.416Z,28.45
2018-07-05T08:19:22.452Z,28.36
2018-07-05T08:20:22.545Z,28.17
2018-07-05T08:21:22.509Z,27.71
2018-07-05T08:22:22.544Z,27.41
2018-07-05T08:23:22.572Z,27.31
2018-07-05T08:24:22.603Z,27.37
2018-07-05T08:25:22.635Z,27.52
2018-07-05T08:26:22.667Z,27.71
2018-07-05T08:27:22.696Z,27.93
2018-07-05T08:28:22.729Z,28.06
2018-07-05T08:29:22.756Z,28.43
2018-07-05T08:30:22.789Z,28.53
2018-07-05T08:31:22.837Z,28.65
2018-07-05T08:32:22.851Z,28.45
2018-07-05T08:33:22.881Z,28.48
2018-07-05T08:34:22.913Z,28.53
2018-07-05T08:35:22.942Z,28.48
2018-07-05T08:36:22.976Z,28.43
2018-07-05T08:37:23.006Z,28.48
2018-07-05T08:38:23.037Z,28.65
2018-07-05T08:39:23.068Z,28.86
2018-07-05T08:40:23.100Z,29.06
2018-07-05T08:41:23.129Z,29.28
2018-07-05T08:42:23.161Z,29.35
2018-07-05T08:43:23.191Z,29.69
2018-07-05T08:44:23.222Z,29.92
2018-07-05T08:45:23.254Z,30.03
2018-07-05T08:46:23.285Z,29.54
2018-07-05T08:47:23.315Z,29.82
2018-07-05T08:48:23.348Z,29.81
2018-07-05T08:49:23.379Z,29.84
2018-07-05T08:50:23.412Z,29.79
2018-07-05T08:51:23.441Z,30.04
2018-07-05T08:52:23.476Z,30.26
2018-07-05T08:53:23.508Z,29.81
2018-07-05T08:54:23.535Z,29.77
2018-07-05T08:55:23.567Z,30.04
2018-07-05T08:56:23.599Z,29.88
2018-07-05T08:57:23.630Z,29.70
2018-07-05T08:58:23.703Z,29.61
2018-07-05T08:59:23.703Z,29.94
2018-07-05T09:00:23.730Z,30.04
2018-07-05T09:01:23.759Z,30.25
2018-07-05T09:02:23.791Z,30.16
2018-07-05T09:03:23.826Z,29.98
2018-07-05T09:04:23.854Z,30.07
2018-07-05T09:05:23.890Z,30.26
2018-07-05T09:06:23.918Z,30.62
2018-07-05T09:07:23.955Z,30.57
2018-07-05T09:08:23.983Z,30.67
2018-07-05T09:09:24.017Z,30.99
2018-07-05T09:10:24.050Z,30.48
2018-07-05T09:11:24.081Z,30.11
2018-07-05T09:12:24.111Z,29.84
2018-07-05T09:13:24.145Z,29.81
2018-07-05T09:14:24.178Z,29.60
2018-07-05T09:15:24.418Z,29.75
2018-07-05T09:16:24.243Z,30.04
2018-07-05T09:17:24.280Z,30.28
2018-07-05T09:18:24.337Z,30.42
2018-07-05T09:19:24.343Z,30.21
2018-07-05T09:20:24.380Z,30.26
2018-07-05T09:21:24.425Z,30.62
2018-07-05T09:22:24.435Z,30.67
2018-07-05T09:23:24.643Z,30.67
2018-07-05T09:24:24.504Z,30.66
2018-07-05T09:25:24.536Z,31.00
2018-07-05T09:26:24.566Z,30.84
2018-07-05T09:27:24.601Z,30.94
2018-07-05T09:28:24.633Z,30.67
2018-07-05T09:29:24.663Z,30.97
2018-07-05T09:30:24.697Z,31.18
2018-07-05T09:31:24.734Z,31.44
2018-07-05T09:32:24.766Z,31.21
2018-07-05T09:33:24.799Z,30.62
2018-07-05T09:34:24.830Z,30.63
2018-07-05T09:35:24.862Z,30.64
2018-07-05T09:36:24.893Z,30.86
2018-07-05T09:37:25.013Z,31.13
2018-07-05T09:38:24.962Z,31.34
2018-07-05T09:39:25.006Z,31.45
2018-07-05T09:40:25.063Z,31.65
2018-07-05T09:41:25.059Z,31.98
2018-07-05T09:42:25.088Z,32.25
2018-07-05T09:43:25.124Z,31.95
2018-07-05T09:44:25.157Z,31.60
2018-07-05T09:45:25.189Z,31.33
2018-07-05T09:46:25.374Z,31.67
2018-07-05T09:47:25.254Z,31.53
2018-07-05T09:48:25.287Z,31.70
2018-07-05T09:49:25.322Z,31.93
2018-07-05T09:50:25.356Z,32.10
2018-07-05T09:51:25.384Z,31.95
2018-07-05T09:52:25.427Z,31.68
2018-07-05T09:53:25.452Z,31.90
2018-07-05T09:54:25.482Z,32.00
2018-07-05T09:55:25.519Z,31.90
2018-07-05T09:56:25.552Z,31.77
2018-07-05T09:57:25.584Z,31.53
2018-07-05T09:58:25.615Z,31.08
2018-07-05T09:59:25.650Z,31.28
2018-07-05T10:00:25.684Z,31.22
2018-07-05T10:01:25.716Z,31.22
2018-07-05T10:02:25.747Z,31.95
2018-07-05T10:03:25.836Z,31.56
2018-07-05T10:04:25.815Z,31.50
2018-07-05T10:05:25.848Z,31.53
2018-07-05T10:06:25.885Z,31.62
2018-07-05T10:07:25.914Z,31.93
2018-07-05T10:08:25.945Z,32.30
2018-07-05T10:09:25.978Z,32.08
2018-07-05T10:10:26.012Z,31.95
2018-07-05T10:11:26.187Z,32.03
2018-07-05T10:12:26.082Z,32.30
2018-07-05T10:13:26.437Z,32.53
2018-07-05T10:14:26.146Z,32.49
2018-07-05T10:15:26.179Z,32.64
2018-07-05T10:16:26.212Z,32.94
2018-07-05T10:17:26.244Z,32.45
2018-07-05T10:18:26.278Z,32.32
2018-07-05T10:19:26.359Z,32.59
2018-07-05T10:20:26.347Z,32.46
2018-07-05T10:21:26.379Z,32.80
2018-07-05T10:22:26.411Z,32.65
2018-07-05T10:23:26.446Z,32.67
2018-07-05T10:24:26.546Z,32.71
2018-07-05T10:25:26.509Z,32.83
2018-07-05T10:26:26.542Z,32.83
2018-07-05T10:27:26.578Z,32.87
2018-07-05T10:28:26.610Z,32.81
2018-07-05T10:29:26.648Z,32.86
2018-07-05T10:30:26.677Z,33.05
2018-07-05T10:31:26.711Z,33.20
2018-07-05T10:32:26.749Z,32.91
2018-07-05T10:33:26.779Z,32.83
2018-07-05T10:34:26.813Z,32.69
2018-07-05T10:35:26.845Z,33.05
2018-07-05T10:36:26.881Z,33.50
2018-07-05T10:37:26.913Z,33.89
2018-07-05T10:38:26.947Z,33.84
2018-07-05T10:39:26.982Z,33.96
2018-07-05T10:40:27.018Z,33.39
2018-07-05T10:41:27.051Z,33.56
2018-07-05T10:42:27.083Z,32.75
2018-07-05T10:43:27.115Z,32.79
2018-07-05T10:45:27.794Z,32.46
2018-07-05T10:46:27.216Z,32.23
2018-07-05T10:47:27.252Z,32.47
2018-07-05T10:48:27.285Z,32.74
2018-07-05T10:49:27.321Z,33.11
2018-07-05T10:50:27.353Z,33.36
2018-07-05T10:51:27.389Z,33.61
2018-07-05T10:52:27.424Z,33.61
2018-07-05T10:53:27.459Z,33.34
2018-07-05T10:54:30.521Z,33.87
2018-07-05T10:55:27.522Z,33.96
2018-07-05T10:56:27.562Z,33.43
2018-07-05T10:57:27.593Z,33.17
2018-07-05T10:58:27.627Z,32.94
2018-07-05T10:59:27.662Z,32.84
2018-07-05T11:00:27.698Z,33.13
2018-07-05T11:01:27.730Z,33.29
2018-07-05T11:02:27.760Z,33.34
2018-07-05T11:03:27.798Z,33.65
2018-07-05T11:04:27.829Z,33.65
2018-07-05T11:05:27.862Z,33.66
2018-07-05T11:06:27.903Z,34.02
2018-07-05T11:07:28.005Z,33.65
2018-07-05T11:08:27.967Z,33.32
2018-07-05T11:09:28.005Z,33.81
2018-07-05T11:10:28.036Z,34.14
2018-07-05T11:11:28.069Z,33.43
2018-07-05T11:12:28.108Z,33.46
2018-07-05T11:13:28.139Z,33.47
2018-07-05T11:14:28.178Z,33.26
2018-07-05T11:15:28.208Z,33.20
2018-07-05T11:16:28.244Z,33.24
2018-07-05T11:17:28.273Z,32.80
2018-07-05T11:18:28.310Z,33.03
2018-07-05T11:19:28.345Z,33.50
2018-07-05T11:20:28.379Z,33.20
2018-07-05T11:21:28.412Z,32.75
2018-07-05T11:22:28.446Z,32.59
2018-07-05T11:23:28.480Z,32.62
2018-07-05T11:24:28.511Z,31.56
2018-07-05T11:25:28.546Z,31.70
2018-07-05T11:26:28.579Z,32.34
2018-07-05T11:27:28.614Z,32.61
2018-07-05T11:28:28.649Z,32.94
2018-07-05T11:29:28.683Z,33.36
2018-07-05T11:30:28.718Z,33.47
2018-07-05T11:31:28.752Z,33.66
2018-07-05T11:32:28.781Z,33.61
2018-07-05T11:33:28.815Z,33.50
2018-07-05T11:34:28.852Z,32.72
2018-07-05T11:35:28.885Z,32.05
2018-07-05T11:36:28.953Z,32.23
2018-07-05T11:37:28.951Z,33.20
2018-07-05T11:38:28.987Z,33.47
2018-07-05T11:39:29.020Z,33.61
2018-07-05T11:40:29.052Z,33.61
2018-07-05T11:41:29.084Z,33.93
2018-07-05T11:42:29.179Z,33.80
2018-07-05T11:43:29.153Z,33.23
2018-07-05T11:44:29.187Z,33.53
2018-07-05T11:45:29.218Z,33.71
2018-07-05T11:46:29.255Z,33.59
2018-07-05T11:47:29.285Z,33.03
2018-07-05T11:48:29.319Z,32.71
2018-07-05T11:49:29.352Z,32.74
2018-07-05T11:50:29.388Z,32.83
2018-07-05T11:51:29.424Z,32.30
2018-07-05T11:52:29.460Z,31.55
2018-07-05T11:53:29.485Z,31.82
2018-07-05T11:54:29.519Z,31.93
2018-07-05T11:55:29.558Z,31.62
2018-07-05T11:56:29.596Z,31.50
2018-07-05T11:57:29.621Z,31.91
2018-07-05T11:58:29.655Z,32.34
2018-07-05T11:59:29.688Z,32.81
2018-07-05T12:00:29.721Z,33.17
2018-07-05T12:01:29.752Z,33.43
2018-07-05T12:02:29.786Z,33.55
2018-07-05T12:03:29.820Z,33.44
2018-07-05T12:04:29.850Z,32.89
2018-07-05T12:05:29.885Z,32.12
2018-07-05T12:06:29.918Z,31.18
2018-07-05T12:07:29.952Z,30.49
2018-07-05T12:08:29.982Z,30.75
2018-07-05T12:09:30.017Z,31.30
2018-07-05T12:10:30.053Z,31.78
2018-07-05T12:11:30.078Z,32.24
2018-07-05T12:12:30.110Z,32.71
2018-07-05T12:13:30.140Z,33.06
2018-07-05T12:14:30.172Z,33.41
2018-07-05T12:15:30.204Z,33.28
2018-07-05T12:16:30.236Z,32.83
2018-07-05T12:17:30.268Z,32.47
2018-07-05T12:18:30.311Z,32.61
2018-07-05T12:19:30.333Z,32.65
2018-07-05T12:20:30.362Z,32.61
2018-07-05T12:21:30.394Z,32.81
2018-07-05T12:22:30.427Z,32.75
2018-07-05T12:23:30.458Z,32.67
2018-07-05T12:24:30.489Z,32.34
2018-07-05T12:25:30.521Z,32.32
2018-07-05T12:26:30.553Z,32.65
2018-07-05T12:27:30.584Z,32.76
2018-07-05T12:28:30.612Z,32.67
2018-07-05T12:29:30.649Z,32.81
2018-07-05T12:30:30.675Z,32.96
2018-07-05T12:31:30.706Z,33.01
2018-07-05T12:32:30.736Z,33.02
2018-07-05T12:33:30.776Z,32.75
2018-07-05T12:34:30.798Z,32.46
2018-07-05T12:35:30.831Z,32.15
2018-07-05T12:36:30.860Z,32.03
2018-07-05T12:37:30.891Z,32.03
2018-07-05T12:38:30.924Z,32.30
2018-07-05T12:39:30.968Z,32.28
2018-07-05T12:40:30.984Z,32.34
2018-07-05T12:41:31.013Z,31.94
2018-07-05T12:42:31.049Z,31.58
2018-07-05T12:43:31.075Z,31.40
2018-07-05T12:44:31.108Z,31.55
2018-07-05T12:45:31.139Z,31.74
2018-07-05T12:46:31.178Z,31.95
2018-07-05T12:47:31.211Z,31.71
2018-07-05T12:48:31.226Z,31.30
2018-07-05T12:49:31.256Z,31.18
2018-07-05T12:50:31.340Z,31.21
2018-07-05T12:51:31.319Z,31.23
2018-07-05T12:52:31.349Z,31.68
2018-07-05T12:53:31.375Z,31.62